Homewood, Pennsylvania
Current Conditions -  °F | °C
As of 6:53 PM on Friday 28 Nov 2014 (Local Time) from KAGC Reporting Station
Few Clouds Few Clouds  
Wind Chill: 18°   Ceiling: Unl
Heat Index: 26°   Visibility: 10mi
Dew Point: 15°   Wind: 7mph
Humidity: 63%   Direction: 200°SSW
Pressure: 30.21"   Gusts: NA
Location:  40.4519°N, 79.9°W
Report Text: KAGC 282353Z 20006KT 10SM FEW031 M03/M09 A3021 RMK AO2 SLP253 T10331094 11017 21033 58004
Loading
Personal Weather Stations






























Interactive Weather Map New forecast layout! Learn more

10-Day Weather Forecast

Advertisements
Track Severe Weather on mobile